createdAt,value
2023-04-14T00:00:06.929Z,99682.19
2023-04-14T00:02:41.429Z,99692.63
2023-04-14T00:05:10.807Z,99691.22
2023-04-14T00:07:40.571Z,99699.22
2023-04-14T00:10:10.150Z,99695.16
2023-04-14T00:12:39.046Z,99701.13
2023-04-14T00:15:11.617Z,99692.91
2023-04-14T00:17:41.461Z,99697.63
2023-04-14T00:20:11.508Z,99692.25
2023-04-14T00:22:41.126Z,99688.94
2023-04-14T00:25:09.980Z,99698.22
2023-04-14T00:27:41.973Z,99706.41
2023-04-14T00:30:11.355Z,99703.38
2023-04-14T00:32:42.357Z,99704.63
2023-04-14T00:35:10.958Z,99708.97
2023-04-14T00:37:42.861Z,99714.16
2023-04-14T00:40:13.201Z,99718.66
2023-04-14T00:42:47.184Z,99720.69
2023-04-14T00:45:17.561Z,99725.38
2023-04-14T00:47:49.035Z,99717.22
2023-04-14T00:50:21.435Z,99725.47
2023-04-14T00:52:52.189Z,99725.00
2023-04-14T00:55:22.640Z,99731.28
2023-04-14T00:57:51.625Z,99726.63
2023-04-14T01:00:22.515Z,99725.97
2023-04-14T01:02:51.529Z,99731.00
2023-04-14T01:05:22.858Z,99738.88
2023-04-14T01:07:55.423Z,99734.94
2023-04-14T01:10:42.641Z,99736.31
2023-04-14T01:13:34.261Z,99737.78
2023-04-14T01:16:19.180Z,99736.22
2023-04-14T01:19:11.412Z,99739.47
2023-04-14T01:21:44.862Z,99744.59
2023-04-14T01:24:40.342Z,99734.00
2023-04-14T01:27:44.846Z,99736.47
2023-04-14T01:30:36.920Z,99740.81
2023-04-14T01:33:09.174Z,99742.66
2023-04-14T01:35:56.756Z,99741.28
2023-04-14T01:38:32.712Z,99745.44
2023-04-14T01:41:07.235Z,99743.00
2023-04-14T01:43:42.706Z,99749.44
2023-04-14T01:46:15.077Z,99751.75
2023-04-14T01:48:45.216Z,99764.63
2023-04-14T01:51:18.888Z,99759.97
2023-04-14T01:53:51.448Z,99759.16
2023-04-14T01:56:22.428Z,99761.59
2023-04-14T01:58:52.657Z,99756.97
2023-04-14T02:01:23.287Z,99762.66
2023-04-14T02:03:53.117Z,99764.84
2023-04-14T02:06:26.178Z,99763.47
2023-04-14T02:08:57.234Z,99759.66
2023-04-14T02:11:31.391Z,99760.19
2023-04-14T02:14:02.928Z,99765.34
2023-04-14T02:16:34.492Z,99762.09
2023-04-14T02:19:05.639Z,99760.47
2023-04-14T02:21:37.579Z,99756.38
2023-04-14T02:24:07.682Z,99762.06
2023-04-14T02:26:41.890Z,99755.78
2023-04-14T02:29:16.998Z,99762.03
2023-04-14T02:31:50.615Z,99761.44
2023-04-14T02:34:26.786Z,99757.91
2023-04-14T02:36:59.338Z,99766.34
2023-04-14T02:39:38.309Z,99757.06
2023-04-14T02:42:15.042Z,99763.59
2023-04-14T02:44:59.118Z,99759.22
2023-04-14T02:47:37.149Z,99757.84
2023-04-14T02:50:09.065Z,99755.84
2023-04-14T02:52:42.086Z,99758.78
2023-04-14T02:55:12.810Z,99756.59
2023-04-14T02:57:42.514Z,99758.63
2023-04-14T03:00:13.035Z,99762.09
2023-04-14T03:02:49.213Z,99760.38
2023-04-14T03:05:19.426Z,99753.16
2023-04-14T03:07:56.854Z,99753.31
2023-04-14T03:10:27.002Z,99755.63
2023-04-14T03:13:02.926Z,99758.31
2023-04-14T03:15:34.065Z,99757.94
2023-04-14T03:18:03.934Z,99752.03
2023-04-14T03:20:34.421Z,99748.13
2023-04-14T03:23:06.642Z,99753.53
2023-04-14T03:25:45.094Z,99748.28
2023-04-14T03:28:24.003Z,99755.09
2023-04-14T03:30:55.733Z,99750.69
2023-04-14T03:33:33.616Z,99758.06
2023-04-14T03:36:04.897Z,99753.78
2023-04-14T03:38:35.674Z,99740.75
2023-04-14T03:41:08.946Z,99746.66
2023-04-14T03:43:39.105Z,99746.09
2023-04-14T03:46:11.710Z,99751.72
2023-04-14T03:48:44.804Z,99745.03
2023-04-14T03:51:20.324Z,99752.84
2023-04-14T03:53:50.797Z,99750.34
2023-04-14T03:56:20.877Z,99752.53
2023-04-14T03:58:53.003Z,99752.78
2023-04-14T04:01:26.291Z,99756.81
2023-04-14T04:03:57.178Z,99753.09
2023-04-14T04:06:28.781Z,99757.06
2023-04-14T04:09:01.538Z,99747.81
2023-04-14T04:11:33.048Z,99752.59
2023-04-14T04:14:05.264Z,99759.34
2023-04-14T04:16:39.027Z,99755.34
2023-04-14T04:19:10.972Z,99756.97
2023-04-14T04:21:46.716Z,99758.66
2023-04-14T04:24:18.789Z,99760.91
2023-04-14T04:26:49.183Z,99767.78
2023-04-14T04:29:18.446Z,99759.53
2023-04-14T04:31:47.580Z,99763.53
2023-04-14T04:34:18.297Z,99771.31
2023-04-14T04:36:49.120Z,99763.94
2023-04-14T04:39:18.312Z,99768.59
2023-04-14T04:41:47.240Z,99772.81
2023-04-14T04:44:16.923Z,99772.22
2023-04-14T04:46:52.975Z,99769.84
2023-04-14T04:49:24.928Z,99774.13
2023-04-14T04:51:55.392Z,99768.03
2023-04-14T04:54:25.097Z,99774.84
2023-04-14T04:56:54.647Z,99775.09
2023-04-14T04:59:23.396Z,99773.72
2023-04-14T05:01:52.971Z,99777.50
2023-04-14T05:04:22.300Z,99765.13
2023-04-14T05:06:51.050Z,99770.44
2023-04-14T05:09:20.862Z,99768.47
2023-04-14T05:11:49.680Z,99763.66
2023-04-14T05:14:19.448Z,99762.50
2023-04-14T05:16:49.175Z,99755.34
2023-04-14T05:19:18.364Z,99762.38
2023-04-14T05:21:46.993Z,99761.06
2023-04-14T05:24:15.392Z,99761.91
2023-04-14T05:26:58.332Z,99753.81
2023-04-14T05:29:34.236Z,99755.19
2023-04-14T05:32:03.008Z,99755.41
2023-04-14T05:34:32.298Z,99744.19
2023-04-14T05:37:01.278Z,99758.38
2023-04-14T05:39:31.069Z,99755.00
2023-04-14T05:42:01.124Z,99762.06
2023-04-14T05:44:31.299Z,99769.66
2023-04-14T05:47:02.338Z,99755.59
2023-04-14T05:49:32.091Z,99757.41
2023-04-14T05:52:02.120Z,99752.75
2023-04-14T05:54:32.986Z,99756.28
2023-04-14T05:57:02.664Z,99756.78
2023-04-14T05:59:32.864Z,99748.72
2023-04-14T06:02:06.165Z,99747.78
2023-04-14T06:04:34.939Z,99743.19
2023-04-14T06:07:03.628Z,99745.28
2023-04-14T06:09:32.841Z,99744.56
2023-04-14T06:12:02.259Z,99742.06
2023-04-14T06:14:32.948Z,99741.00
2023-04-14T06:17:02.209Z,99749.94
2023-04-14T06:19:31.510Z,99746.13
2023-04-14T06:22:01.019Z,99745.66
2023-04-14T06:24:30.640Z,99742.72
2023-04-14T06:27:01.523Z,99743.09
2023-04-14T06:29:31.572Z,99739.44
2023-04-14T06:32:02.320Z,99735.69
2023-04-14T06:34:32.207Z,99735.22
2023-04-14T06:37:02.413Z,99735.44
2023-04-14T06:39:32.879Z,99733.81
2023-04-14T06:42:02.339Z,99732.53
2023-04-14T06:44:33.009Z,99728.53
2023-04-14T06:47:02.217Z,99729.34
2023-04-14T06:49:32.059Z,99721.59
2023-04-14T06:52:01.433Z,99715.84
2023-04-14T06:54:35.534Z,99714.34
2023-04-14T06:57:05.282Z,99715.72
2023-04-14T06:59:34.499Z,99718.81
2023-04-14T07:02:03.227Z,99713.84
2023-04-14T07:04:33.341Z,99717.22
2023-04-14T07:07:02.520Z,99720.41
2023-04-14T07:09:33.153Z,99715.25
2023-04-14T07:12:02.346Z,99723.31
2023-04-14T07:14:34.619Z,99726.59
2023-04-14T07:17:03.550Z,99723.19
2023-04-14T07:19:33.202Z,99719.31
2023-04-14T07:22:01.680Z,99722.00
2023-04-14T07:24:31.882Z,99717.94
2023-04-14T07:27:01.340Z,99716.09
2023-04-14T07:29:33.625Z,99714.31
2023-04-14T07:32:05.890Z,99706.78
2023-04-14T07:34:34.957Z,99714.16
2023-04-14T07:37:03.337Z,99718.59
2023-04-14T07:39:32.645Z,99714.75
2023-04-14T07:42:02.199Z,99720.25
2023-04-14T07:44:33.030Z,99720.63
2023-04-14T07:47:02.114Z,99712.63
2023-04-14T07:49:33.045Z,99718.25
2023-04-14T07:52:02.219Z,99717.41
2023-04-14T07:54:32.882Z,99725.13
2023-04-14T07:57:02.046Z,99725.44
2023-04-14T07:59:33.044Z,99730.84
2023-04-14T08:02:02.091Z,99730.25
2023-04-14T08:04:32.275Z,99729.06
2023-04-14T08:07:02.451Z,99741.53
2023-04-14T08:09:33.079Z,99739.06
2023-04-14T08:12:02.700Z,99738.19
2023-04-14T08:14:32.535Z,99736.31
2023-04-14T08:17:03.131Z,99739.75
2023-04-14T08:19:34.637Z,99746.72
2023-04-14T08:22:03.074Z,99747.53
2023-04-14T08:24:32.282Z,99747.75
2023-04-14T08:27:02.760Z,99749.66
2023-04-14T08:29:32.842Z,99747.44
2023-04-14T08:32:01.406Z,99749.34
2023-04-14T08:34:31.142Z,99748.97
2023-04-14T08:37:02.583Z,99750.00
2023-04-14T08:39:32.778Z,99746.47
2023-04-14T08:42:02.170Z,99749.69
2023-04-14T08:44:31.825Z,99759.63
2023-04-14T08:47:02.447Z,99756.75
2023-04-14T08:49:51.889Z,99756.31
2023-04-14T08:52:25.138Z,99763.16
2023-04-14T08:54:56.515Z,99763.72
2023-04-14T08:57:27.441Z,99769.72
2023-04-14T08:59:59.486Z,99762.72
2023-04-14T09:02:30.080Z,99773.72
2023-04-14T09:05:02.556Z,99769.72
2023-04-14T09:07:32.870Z,99768.78
2023-04-14T09:10:02.438Z,99753.56
2023-04-14T09:12:33.309Z,99756.09
2023-04-14T09:15:03.685Z,99754.50
2023-04-14T09:17:34.409Z,99762.28
2023-04-14T09:20:38.605Z,99763.59
2023-04-14T09:22:54.858Z,99769.63
2023-04-14T09:25:23.326Z,99769.06
2023-04-14T09:27:53.032Z,99769.44
2023-04-14T09:30:22.669Z,99776.66
2023-04-14T09:32:54.560Z,99772.44
2023-04-14T09:35:23.755Z,99782.13
2023-04-14T09:37:54.023Z,99774.25
2023-04-14T09:40:31.618Z,99774.00
2023-04-14T09:43:02.237Z,99784.00
2023-04-14T09:45:59.731Z,99787.97
2023-04-14T09:48:30.973Z,99791.13
2023-04-14T09:51:10.493Z,99784.75
2023-04-14T09:53:41.442Z,99779.25
2023-04-14T09:56:12.148Z,99780.94
2023-04-14T09:58:45.444Z,99784.06
2023-04-14T10:01:18.455Z,99781.50
2023-04-14T10:03:49.262Z,99792.31
2023-04-14T10:06:22.874Z,99793.53
2023-04-14T10:08:56.373Z,99786.72
2023-04-14T10:11:33.172Z,99775.75
2023-04-14T10:14:06.914Z,99780.59
2023-04-14T10:16:35.645Z,99787.19
2023-04-14T10:19:05.527Z,99787.13
2023-04-14T10:21:37.006Z,99794.00
2023-04-14T10:24:06.951Z,99791.56
2023-04-14T10:26:37.364Z,99794.25
2023-04-14T10:29:06.549Z,99797.94
2023-04-14T10:31:41.627Z,99793.69
2023-04-14T10:34:15.260Z,99800.81
2023-04-14T10:36:45.375Z,99796.72
2023-04-14T10:39:21.247Z,99802.59
2023-04-14T10:41:52.512Z,99802.91
2023-04-14T10:44:35.374Z,99810.38
2023-04-14T10:47:10.645Z,99807.97
2023-04-14T10:49:41.123Z,99820.97
2023-04-14T10:52:15.622Z,99818.00
2023-04-14T10:55:09.306Z,99830.88
2023-04-14T10:57:43.054Z,99824.81
2023-04-14T11:00:34.829Z,99833.91
2023-04-14T11:03:13.881Z,99839.56
2023-04-14T11:05:51.623Z,99831.78
2023-04-14T11:08:28.031Z,99829.22
2023-04-14T11:11:06.631Z,99837.81
2023-04-14T11:13:38.672Z,99835.97
2023-04-14T11:16:09.008Z,99839.28
2023-04-14T11:18:46.584Z,99847.34
2023-04-14T11:21:18.573Z,99839.59
2023-04-14T11:23:49.154Z,99839.16
2023-04-14T11:26:18.235Z,99842.84
2023-04-14T11:28:47.421Z,99845.13
2023-04-14T11:31:19.039Z,99844.22
2023-04-14T11:33:49.172Z,99846.66
2023-04-14T11:36:18.355Z,99845.19
2023-04-14T11:38:48.992Z,99847.22
2023-04-14T11:41:21.325Z,99847.59
2023-04-14T11:43:51.499Z,99841.97
2023-04-14T11:46:22.698Z,99850.63
2023-04-14T11:48:56.940Z,99853.84
2023-04-14T11:51:35.093Z,99853.56
2023-04-14T11:54:04.331Z,99851.72
2023-04-14T11:56:34.234Z,99849.78
2023-04-14T11:59:05.251Z,99844.28
2023-04-14T12:01:35.181Z,99847.59
2023-04-14T12:04:04.630Z,99854.59
2023-04-14T12:06:39.480Z,99853.63
2023-04-14T12:09:10.497Z,99855.06
2023-04-14T12:11:39.543Z,99857.59
2023-04-14T12:14:09.411Z,99859.00
2023-04-14T12:16:39.013Z,99855.50
2023-04-14T12:19:07.740Z,99851.00
2023-04-14T12:21:37.297Z,99839.56
2023-04-14T12:24:06.705Z,99858.50
2023-04-14T12:26:37.408Z,99856.09
2023-04-14T12:29:06.752Z,99854.59
2023-04-14T12:31:35.269Z,99862.44
2023-04-14T12:34:05.152Z,99849.06
2023-04-14T12:36:49.763Z,99855.97
2023-04-14T12:39:20.353Z,99861.56
2023-04-14T12:41:50.184Z,99856.66
2023-04-14T12:44:21.429Z,99858.25
2023-04-14T12:46:53.350Z,99855.13
2023-04-14T12:49:39.394Z,99849.81
2023-04-14T12:52:09.408Z,99842.34
2023-04-14T12:54:53.276Z,99844.28
2023-04-14T12:57:23.045Z,99842.06
2023-04-14T12:59:51.708Z,99837.19
2023-04-14T13:02:22.609Z,99839.50
2023-04-14T13:04:53.693Z,99839.00
2023-04-14T13:07:22.925Z,99838.31
2023-04-14T13:09:53.217Z,99847.38
2023-04-14T13:12:22.474Z,99849.69
2023-04-14T13:14:56.215Z,99851.72
2023-04-14T13:17:25.862Z,99851.34
2023-04-14T13:19:55.386Z,99851.91
2023-04-14T13:22:25.580Z,99838.31
2023-04-14T13:24:57.062Z,99845.72
2023-04-14T13:27:28.093Z,99841.97
2023-04-14T13:29:59.375Z,99830.56
2023-04-14T13:32:29.730Z,99828.97
2023-04-14T13:35:02.921Z,99830.44
2023-04-14T13:37:33.494Z,99836.34
2023-04-14T13:40:03.149Z,99823.88
2023-04-14T13:42:35.111Z,99817.09
2023-04-14T13:45:09.692Z,99822.81
2023-04-14T13:47:39.225Z,99826.66
2023-04-14T13:50:09.449Z,99816.31
2023-04-14T13:52:38.786Z,99820.13
2023-04-14T13:55:11.065Z,99817.94
2023-04-14T13:57:42.150Z,99822.84
2023-04-14T14:00:11.549Z,99818.50
2023-04-14T14:02:43.480Z,99822.59
2023-04-14T14:05:16.105Z,99823.09
2023-04-14T14:07:45.682Z,99822.25
2023-04-14T14:10:14.664Z,99825.22
2023-04-14T14:12:43.472Z,99821.03
2023-04-14T14:15:13.581Z,99814.09
2023-04-14T14:17:46.056Z,99818.38
2023-04-14T14:20:15.971Z,99814.84
2023-04-14T14:22:45.961Z,99821.66
2023-04-14T14:25:19.525Z,99825.59
2023-04-14T14:27:53.063Z,99830.47
2023-04-14T14:30:22.047Z,99812.47
2023-04-14T14:32:51.374Z,99812.97
2023-04-14T14:35:21.938Z,99818.91
2023-04-14T14:37:51.474Z,99813.59
2023-04-14T14:40:24.382Z,99809.94
2023-04-14T14:42:54.767Z,99807.94
2023-04-14T14:45:27.593Z,99808.69
2023-04-14T14:48:01.531Z,99796.22
2023-04-14T14:50:32.662Z,99793.25
2023-04-14T14:53:06.010Z,99801.19
2023-04-14T14:55:35.924Z,99801.78
2023-04-14T14:58:07.005Z,99806.25
2023-04-14T15:00:36.706Z,99810.06
2023-04-14T15:03:09.718Z,99814.66
2023-04-14T15:05:39.050Z,99820.13
2023-04-14T15:08:09.796Z,99817.22
2023-04-14T15:10:38.864Z,99827.38
2023-04-14T15:13:08.043Z,99816.63
2023-04-14T15:15:40.004Z,99819.66
2023-04-14T15:18:09.362Z,99823.03
2023-04-14T15:20:38.574Z,99823.00
2023-04-14T15:23:07.758Z,99819.94
2023-04-14T15:25:37.343Z,99820.84
2023-04-14T15:28:07.598Z,99826.47
2023-04-14T15:30:37.267Z,99823.59
2023-04-14T15:33:07.095Z,99821.09
2023-04-14T15:35:40.330Z,99816.53
2023-04-14T15:38:10.494Z,99822.25
2023-04-14T15:40:41.505Z,99820.81
2023-04-14T15:43:11.058Z,99814.47
2023-04-14T15:45:41.595Z,99802.75
2023-04-14T15:48:12.417Z,99803.41
2023-04-14T15:50:45.953Z,99807.19
2023-04-14T15:53:15.224Z,99802.72
2023-04-14T15:55:45.572Z,99794.00
2023-04-14T15:58:18.435Z,99789.75
2023-04-14T16:00:51.520Z,99798.25
2023-04-14T16:03:21.490Z,99788.31
2023-04-14T16:05:50.628Z,99772.16
2023-04-14T16:08:19.817Z,99765.28
2023-04-14T16:10:50.903Z,99769.53
2023-04-14T16:13:19.846Z,99769.22
2023-04-14T16:15:50.646Z,99768.03
2023-04-14T16:18:19.397Z,99767.81
2023-04-14T16:20:50.778Z,99766.72
2023-04-14T16:23:23.181Z,99757.47
2023-04-14T16:25:53.606Z,99754.81
2023-04-14T16:28:24.041Z,99753.28
2023-04-14T16:30:53.132Z,99761.53
2023-04-14T16:33:22.576Z,99752.97
2023-04-14T16:35:53.561Z,99747.66
2023-04-14T16:38:27.050Z,99751.44
2023-04-14T16:41:02.312Z,99755.59
2023-04-14T16:43:32.549Z,99763.28
2023-04-14T16:46:04.057Z,99758.03
2023-04-14T16:48:34.264Z,99763.75
2023-04-14T16:51:11.766Z,99759.59
2023-04-14T16:53:41.546Z,99753.91
2023-04-14T16:56:11.075Z,99754.50
2023-04-14T16:59:10.755Z,99750.75
2023-04-14T17:01:40.230Z,99749.25
2023-04-14T17:04:09.840Z,99749.06
2023-04-14T17:06:39.602Z,99750.44
2023-04-14T17:09:14.116Z,99739.00
2023-04-14T17:11:49.436Z,99737.19
2023-04-14T17:14:18.794Z,99741.63
2023-04-14T17:16:48.159Z,99736.97
2023-04-14T17:19:20.362Z,99740.72
2023-04-14T17:21:50.949Z,99735.41
2023-04-14T17:24:19.889Z,99725.84
2023-04-14T17:26:50.550Z,99730.16
2023-04-14T17:29:19.613Z,99723.53
2023-04-14T17:31:52.206Z,99714.81
2023-04-14T17:34:21.878Z,99717.16
2023-04-14T17:36:50.797Z,99708.97
2023-04-14T17:39:24.781Z,99700.22
2023-04-14T17:41:59.988Z,99705.69
2023-04-14T17:44:35.359Z,99705.19
2023-04-14T17:47:13.730Z,99710.50
2023-04-14T17:49:45.405Z,99702.13
2023-04-14T17:52:22.599Z,99695.34
2023-04-14T17:54:56.600Z,99697.25
2023-04-14T17:57:26.578Z,99691.63
2023-04-14T18:00:00.164Z,99697.91
2023-04-14T18:02:41.944Z,99696.03
2023-04-14T18:05:15.916Z,99699.09
2023-04-14T18:07:45.521Z,99697.97
2023-04-14T18:10:14.563Z,99690.44
2023-04-14T18:12:43.650Z,99696.78
2023-04-14T18:15:17.395Z,99679.38
2023-04-14T18:17:47.513Z,99682.84
2023-04-14T18:20:17.532Z,99678.94
2023-04-14T18:22:47.022Z,99675.81
2023-04-14T18:25:15.733Z,99678.03
2023-04-14T18:28:06.151Z,99675.47
2023-04-14T18:30:36.402Z,99684.59
2023-04-14T18:33:05.433Z,99677.50
2023-04-14T18:35:36.055Z,99678.84
2023-04-14T18:38:05.380Z,99687.38
2023-04-14T18:40:39.379Z,99681.34
2023-04-14T18:43:09.459Z,99687.09
2023-04-14T18:45:38.863Z,99681.84
2023-04-14T18:48:10.216Z,99689.31
2023-04-14T18:50:50.190Z,99683.34
2023-04-14T18:53:25.720Z,99668.09
2023-04-14T18:55:55.393Z,99664.22
2023-04-14T18:58:25.192Z,99673.53
2023-04-14T19:00:54.519Z,99666.25
2023-04-14T19:03:27.699Z,99664.69
2023-04-14T19:05:59.361Z,99651.34
2023-04-14T19:08:27.921Z,99652.56
2023-04-14T19:11:01.803Z,99638.94
2023-04-14T19:13:35.638Z,99635.38
2023-04-14T19:16:10.808Z,99639.56
2023-04-14T19:18:41.950Z,99633.25
2023-04-14T19:21:11.057Z,99636.50
2023-04-14T19:23:40.558Z,99624.84
2023-04-14T19:26:11.868Z,99601.59
2023-04-14T19:28:43.157Z,99603.41
2023-04-14T19:31:13.439Z,99589.50
2023-04-14T19:33:42.791Z,99583.06
2023-04-14T19:36:16.994Z,99580.88
2023-04-14T19:38:47.698Z,99589.06
2023-04-14T19:41:17.366Z,99586.50
2023-04-14T19:43:46.678Z,99589.69
2023-04-14T19:46:16.298Z,99586.78
2023-04-14T19:48:50.668Z,99592.84
2023-04-14T19:51:21.372Z,99592.59
2023-04-14T19:53:52.130Z,99579.31
2023-04-14T19:56:25.302Z,99577.91
2023-04-14T19:58:54.620Z,99582.38
2023-04-14T20:01:25.563Z,99582.41
2023-04-14T20:04:05.531Z,99586.47
2023-04-14T20:06:45.647Z,99583.25
2023-04-14T20:09:14.749Z,99584.97
2023-04-14T20:11:43.690Z,99581.66
2023-04-14T20:14:13.423Z,99574.75
2023-04-14T20:16:43.420Z,99567.78
2023-04-14T20:19:15.263Z,99564.22
2023-04-14T20:21:45.905Z,99566.78
2023-04-14T20:24:15.275Z,99563.41
2023-04-14T20:26:45.682Z,99560.66
2023-04-14T20:29:18.424Z,99558.69
2023-04-14T20:31:49.817Z,99554.34
2023-04-14T20:34:19.196Z,99552.16
2023-04-14T20:36:47.916Z,99558.56
2023-04-14T20:39:18.758Z,99563.22
2023-04-14T20:41:54.368Z,99551.63
2023-04-14T20:44:24.510Z,99556.28
2023-04-14T20:46:54.763Z,99553.22
2023-04-14T20:49:24.085Z,99545.31
2023-04-14T20:52:02.226Z,99544.69
2023-04-14T20:54:32.581Z,99544.56
2023-04-14T20:57:05.837Z,99540.66
2023-04-14T20:59:35.587Z,99540.19
2023-04-14T21:02:05.688Z,99539.06
2023-04-14T21:04:34.866Z,99534.69
2023-04-14T21:07:05.317Z,99538.25
2023-04-14T21:09:36.291Z,99538.91
2023-04-14T21:12:21.443Z,99529.25
2023-04-14T21:15:31.486Z,99537.31
2023-04-14T21:17:43.634Z,99545.22
2023-04-14T21:20:13.766Z,99539.88
2023-04-14T21:22:43.082Z,99554.94
2023-04-14T21:25:12.018Z,99547.97
2023-04-14T21:27:42.968Z,99550.38
2023-04-14T21:30:12.045Z,99552.66
2023-04-14T21:32:41.788Z,99557.19
2023-04-14T21:35:11.165Z,99558.47
2023-04-14T21:37:39.490Z,99557.50
2023-04-14T21:40:11.015Z,99553.28
2023-04-14T21:42:39.593Z,99560.72
2023-04-14T21:45:13.797Z,99558.31
2023-04-14T21:47:43.339Z,99563.66
2023-04-14T21:50:11.902Z,99563.13
2023-04-14T21:52:41.865Z,99560.88
2023-04-14T21:55:11.055Z,99562.19
2023-04-14T21:57:48.969Z,99551.31
2023-04-14T22:00:19.169Z,99564.75
2023-04-14T22:02:50.088Z,99560.06
2023-04-14T22:05:20.668Z,99567.34
2023-04-14T22:07:50.587Z,99567.56
2023-04-14T22:10:23.126Z,99560.53
2023-04-14T22:12:53.661Z,99562.50
2023-04-14T22:15:25.745Z,99559.13
2023-04-14T22:17:55.590Z,99565.28
2023-04-14T22:20:25.894Z,99569.91
2023-04-14T22:22:55.113Z,99573.13
2023-04-14T22:25:28.993Z,99568.78
2023-04-14T22:27:59.536Z,99570.88
2023-04-14T22:30:30.403Z,99573.75
2023-04-14T22:33:00.418Z,99575.84
2023-04-14T22:35:32.032Z,99573.91
2023-04-14T22:38:03.213Z,99587.28
2023-04-14T22:40:32.131Z,99580.31
2023-04-14T22:43:01.734Z,99583.72
2023-04-14T22:45:31.967Z,99579.66
2023-04-14T22:48:02.976Z,99575.75
2023-04-14T22:50:32.326Z,99571.81
2023-04-14T22:53:02.970Z,99573.03
2023-04-14T22:55:33.187Z,99574.81
2023-04-14T22:58:05.477Z,99564.78
2023-04-14T23:00:35.302Z,99568.66
2023-04-14T23:03:05.026Z,99566.03
2023-04-14T23:05:33.530Z,99560.31
2023-04-14T23:08:02.840Z,99563.22
2023-04-14T23:10:34.518Z,99561.69
2023-04-14T23:13:04.033Z,99560.53
2023-04-14T23:15:33.536Z,99568.13
2023-04-14T23:18:02.946Z,99564.59
2023-04-14T23:20:32.632Z,99564.63
2023-04-14T23:23:06.709Z,99564.31
2023-04-14T23:25:36.225Z,99566.91
2023-04-14T23:28:05.754Z,99567.63
2023-04-14T23:30:35.161Z,99577.94
2023-04-14T23:33:03.989Z,99570.78
2023-04-14T23:35:36.567Z,99572.88
2023-04-14T23:38:05.627Z,99567.94
2023-04-14T23:40:35.231Z,99563.78
2023-04-14T23:43:04.322Z,99557.81
2023-04-14T23:45:38.759Z,99550.63
2023-04-14T23:48:07.976Z,99556.81
2023-04-14T23:51:00.121Z,99571.72
2023-04-14T23:53:33.860Z,99571.19
2023-04-14T23:56:05.571Z,99565.03
2023-04-14T23:58:35.013Z,99562.69
